createdAt,value
2019-03-28T00:00:53.754Z,74.40
2019-03-28T00:03:23.468Z,74.30
2019-03-28T00:05:53.142Z,75.00
2019-03-28T00:08:22.970Z,75.00
2019-03-28T00:10:52.666Z,75.20
2019-03-28T00:13:22.641Z,75.50
2019-03-28T00:15:52.299Z,75.40
2019-03-28T00:18:22.209Z,76.00
2019-03-28T00:20:51.897Z,76.10
2019-03-28T00:23:32.677Z,76.20
2019-03-28T00:26:02.886Z,76.30
2019-03-28T00:28:33.066Z,76.00
2019-03-28T00:31:02.919Z,76.00
2019-03-28T00:33:32.748Z,75.80
2019-03-28T00:36:02.451Z,75.80
2019-03-28T00:38:32.093Z,75.50
2019-03-28T00:41:01.826Z,75.60
2019-03-28T00:43:31.591Z,75.60
2019-03-28T00:46:01.258Z,75.60
2019-03-28T00:48:30.805Z,75.30
2019-03-28T00:51:00.630Z,75.40
2019-03-28T00:53:30.260Z,75.30
2019-03-28T00:55:59.885Z,75.40
2019-03-28T00:58:29.703Z,75.40
2019-03-28T01:00:59.482Z,75.40
2019-03-28T01:03:29.123Z,75.30
2019-03-28T01:05:58.900Z,75.50
2019-03-28T01:08:28.770Z,75.60
2019-03-28T01:10:58.434Z,75.50
2019-03-28T01:13:28.237Z,75.70
2019-03-28T01:15:58.010Z,75.60
2019-03-28T01:18:27.767Z,75.50
2019-03-28T01:20:57.418Z,75.50
2019-03-28T01:23:27.038Z,75.20
2019-03-28T01:25:56.790Z,75.10
2019-03-28T01:28:26.564Z,74.80
2019-03-28T01:30:56.421Z,74.60
2019-03-28T01:33:26.121Z,74.60
2019-03-28T01:35:55.839Z,74.80
2019-03-28T01:38:25.586Z,75.10
2019-03-28T01:40:55.270Z,75.20
2019-03-28T01:43:25.080Z,75.40
2019-03-28T01:45:54.874Z,75.60
2019-03-28T01:48:24.754Z,75.70
2019-03-28T01:50:54.515Z,75.60
2019-03-28T01:53:24.213Z,75.80
2019-03-28T01:55:53.738Z,76.70
2019-03-28T01:58:23.499Z,75.50
2019-03-28T02:00:53.208Z,75.80
2019-03-28T02:03:23.014Z,75.70
2019-03-28T02:05:52.712Z,75.80
2019-03-28T02:08:24.751Z,76.20
2019-03-28T02:10:53.868Z,76.50
2019-03-28T02:13:23.588Z,77.00
2019-03-28T02:15:53.519Z,77.60
2019-03-28T02:18:23.211Z,78.10
2019-03-28T02:20:53.054Z,78.30
2019-03-28T02:23:22.824Z,78.70
2019-03-28T02:25:52.589Z,78.80
2019-03-28T02:28:22.282Z,79.20
2019-03-28T02:30:51.842Z,79.10
2019-03-28T02:33:21.564Z,78.80
2019-03-28T02:35:51.328Z,78.90
2019-03-28T02:38:21.043Z,78.70
2019-03-28T02:40:50.896Z,78.70
2019-03-28T02:43:20.648Z,78.90
2019-03-28T02:45:50.409Z,78.50
2019-03-28T02:48:20.058Z,79.40
2019-03-28T02:50:49.767Z,79.80
2019-03-28T02:53:19.593Z,78.60
2019-03-28T02:55:49.763Z,79.20
2019-03-28T02:58:19.811Z,78.30
2019-03-28T03:00:49.737Z,78.30
2019-03-28T03:03:19.433Z,79.60
2019-03-28T03:05:49.184Z,78.60
2019-03-28T03:08:19.073Z,78.60
2019-03-28T03:10:48.772Z,78.70
2019-03-28T03:13:19.670Z,78.80
2019-03-28T03:15:49.770Z,79.00
2019-03-28T03:18:21.469Z,78.80
2019-03-28T03:20:50.879Z,78.60
2019-03-28T03:23:20.612Z,78.40
2019-03-28T03:25:50.367Z,78.60
2019-03-28T03:28:20.089Z,78.60
2019-03-28T03:30:49.805Z,78.60
2019-03-28T03:33:19.642Z,79.20
2019-03-28T03:35:49.362Z,78.60
2019-03-28T03:38:19.227Z,78.70
2019-03-28T03:40:48.987Z,79.20
2019-03-28T03:43:18.931Z,79.60
2019-03-28T03:45:48.714Z,79.40
2019-03-28T03:48:18.574Z,79.30
2019-03-28T03:50:48.774Z,79.60
2019-03-28T03:53:18.671Z,80.10
2019-03-28T03:55:48.587Z,79.10
2019-03-28T03:58:18.848Z,79.10
2019-03-28T04:00:48.953Z,79.10
2019-03-28T04:03:18.584Z,79.20
2019-03-28T04:05:48.298Z,79.40
2019-03-28T04:08:17.750Z,79.40
2019-03-28T04:10:47.370Z,80.00
2019-03-28T04:13:16.884Z,79.30
2019-03-28T04:15:46.360Z,79.80
2019-03-28T04:18:16.052Z,80.50
2019-03-28T04:20:45.605Z,79.80
2019-03-28T04:23:15.220Z,80.00
2019-03-28T04:25:44.748Z,79.70
2019-03-28T04:28:24.834Z,79.10
2019-03-28T04:30:45.475Z,79.70
2019-03-28T04:33:15.021Z,79.10
2019-03-28T04:35:44.659Z,79.50
2019-03-28T04:38:14.296Z,79.20
2019-03-28T04:40:43.773Z,79.30
2019-03-28T04:43:13.236Z,79.40
2019-03-28T04:45:42.850Z,79.40
2019-03-28T04:48:12.447Z,79.60
2019-03-28T04:50:41.982Z,79.80
2019-03-28T04:53:11.603Z,79.90
2019-03-28T04:55:41.401Z,79.80
2019-03-28T04:58:10.851Z,80.00
2019-03-28T05:00:40.517Z,80.20
2019-03-28T05:03:10.003Z,79.80
2019-03-28T05:05:39.555Z,79.80
2019-03-28T05:08:09.066Z,80.20
2019-03-28T05:10:38.518Z,79.10
2019-03-28T05:13:08.037Z,78.50
2019-03-28T05:15:37.579Z,78.80
2019-03-28T05:18:07.107Z,79.30
2019-03-28T05:20:36.837Z,79.40
2019-03-28T05:23:06.359Z,80.10
2019-03-28T05:25:36.350Z,79.30
2019-03-28T05:28:05.950Z,79.40
2019-03-28T05:30:35.546Z,79.10
2019-03-28T05:33:23.946Z,79.50
2019-03-28T05:35:53.422Z,79.20
2019-03-28T05:38:23.030Z,79.10
2019-03-28T05:40:52.750Z,79.10
2019-03-28T05:43:22.271Z,80.10
2019-03-28T05:45:51.909Z,79.10
2019-03-28T05:48:21.441Z,78.80
2019-03-28T05:50:51.000Z,78.80
2019-03-28T05:53:20.740Z,77.70
2019-03-28T05:55:50.252Z,78.40
2019-03-28T05:58:19.894Z,78.10
2019-03-28T06:00:51.292Z,77.80
2019-03-28T06:03:20.779Z,78.10
2019-03-28T06:05:50.345Z,78.30
2019-03-28T06:08:19.886Z,77.80
2019-03-28T06:10:49.419Z,77.70
2019-03-28T06:13:18.989Z,77.60
2019-03-28T06:15:48.532Z,77.90
2019-03-28T06:18:18.162Z,77.30
2019-03-28T06:20:47.695Z,77.60
2019-03-28T06:23:17.134Z,77.20
2019-03-28T06:25:46.747Z,77.40
2019-03-28T06:28:16.303Z,77.20
2019-03-28T06:30:45.853Z,77.20
2019-03-28T06:33:15.496Z,76.70
2019-03-28T06:35:45.064Z,76.80
2019-03-28T06:38:14.614Z,76.80
2019-03-28T06:40:44.139Z,76.60
2019-03-28T06:43:13.626Z,77.10
2019-03-28T06:45:43.209Z,77.70
2019-03-28T06:48:12.693Z,76.80
2019-03-28T06:50:42.159Z,77.40
2019-03-28T06:53:12.562Z,77.70
2019-03-28T06:55:43.175Z,77.10
2019-03-28T06:58:12.782Z,76.20
2019-03-28T07:00:42.250Z,76.60
2019-03-28T07:03:12.379Z,75.50
2019-03-28T07:05:42.549Z,75.30
2019-03-28T07:08:12.037Z,74.80
2019-03-28T07:10:41.509Z,75.10
2019-03-28T07:13:11.067Z,75.60
2019-03-28T07:15:40.510Z,75.20
2019-03-28T07:18:10.138Z,75.60
2019-03-28T07:20:39.676Z,75.60
2019-03-28T07:23:09.207Z,75.00
2019-03-28T07:25:38.825Z,74.30
2019-03-28T07:28:08.501Z,75.30
2019-03-28T07:30:37.971Z,75.50
2019-03-28T07:33:07.512Z,75.30
2019-03-28T07:35:37.071Z,75.20
2019-03-28T07:38:06.758Z,75.90
2019-03-28T07:40:36.436Z,75.70
2019-03-28T07:43:06.043Z,74.30
2019-03-28T07:45:35.610Z,74.10
2019-03-28T07:48:05.229Z,73.10
2019-03-28T07:50:34.856Z,70.00
2019-03-28T07:53:04.554Z,69.60
2019-03-28T07:55:34.218Z,70.40
2019-03-28T07:58:27.050Z,70.30
2019-03-28T08:04:19.462Z,70.00
2019-03-28T08:06:55.645Z,70.00
2019-03-28T08:09:36.587Z,71.20
2019-03-28T08:12:02.267Z,70.70
2019-03-28T08:14:32.316Z,70.70
2019-03-28T08:17:02.415Z,71.10
2019-03-28T08:19:35.331Z,70.50
2019-03-28T08:22:05.748Z,70.00
2019-03-28T08:24:35.913Z,70.90
2019-03-28T08:30:31.970Z,71.20
2019-03-28T08:33:30.095Z,71.70
2019-03-28T08:36:21.434Z,69.80
2019-03-28T08:38:57.085Z,69.90
2019-03-28T08:41:27.173Z,69.30
2019-03-28T08:44:24.783Z,67.80
2019-03-28T08:47:00.181Z,70.00
2019-03-28T08:49:30.673Z,67.90
2019-03-28T08:52:04.713Z,65.80
2019-03-28T08:54:34.182Z,67.20
2019-03-28T08:57:03.807Z,67.00
2019-03-28T08:59:33.356Z,67.10
2019-03-28T09:02:05.054Z,65.80
2019-03-28T09:04:34.414Z,66.30
2019-03-28T09:07:04.223Z,66.30
2019-03-28T09:09:33.821Z,65.20
2019-03-28T09:12:05.411Z,65.30
2019-03-28T09:14:34.874Z,66.90
2019-03-28T09:17:04.478Z,64.60
2019-03-28T09:19:34.104Z,64.10
2019-03-28T09:22:05.516Z,64.30
2019-03-28T09:24:35.087Z,65.10
2019-03-28T09:27:04.791Z,64.80
2019-03-28T09:29:34.371Z,64.10
2019-03-28T09:32:03.915Z,65.00
2019-03-28T09:34:33.526Z,64.00
2019-03-28T09:37:03.153Z,63.50
2019-03-28T09:39:32.770Z,62.60
2019-03-28T09:42:02.524Z,63.60
2019-03-28T09:44:32.144Z,62.70
2019-03-28T09:47:01.871Z,63.60
2019-03-28T09:49:31.338Z,63.20
2019-03-28T09:52:00.970Z,61.80
2019-03-28T09:54:30.536Z,62.70
2019-03-28T09:57:00.142Z,62.10
2019-03-28T09:59:29.748Z,61.20
2019-03-28T10:02:18.130Z,60.60
2019-03-28T10:04:48.072Z,61.20
2019-03-28T10:07:17.542Z,62.20
2019-03-28T10:09:47.072Z,62.60
2019-03-28T10:12:16.701Z,62.20
2019-03-28T10:14:46.298Z,62.20
2019-03-28T10:17:15.917Z,61.50
2019-03-28T10:19:45.862Z,60.50
2019-03-28T10:22:15.658Z,61.00
2019-03-28T10:24:45.273Z,60.70
2019-03-28T10:27:33.725Z,59.50
2019-03-28T10:30:03.384Z,59.80
2019-03-28T10:32:33.422Z,59.80
2019-03-28T10:35:06.707Z,58.80
2019-03-28T10:37:34.679Z,58.20
2019-03-28T10:40:04.558Z,59.20
2019-03-28T10:42:34.127Z,58.70
2019-03-28T10:45:03.967Z,58.90
2019-03-28T10:47:33.656Z,60.50
2019-03-28T10:50:04.280Z,58.80
2019-03-28T10:52:34.134Z,59.60
2019-03-28T10:55:04.561Z,57.60
2019-03-28T10:57:34.122Z,57.10
2019-03-28T11:00:04.281Z,56.80
2019-03-28T11:02:33.919Z,56.80
2019-03-28T11:05:03.525Z,57.50
2019-03-28T11:07:33.128Z,56.90
2019-03-28T11:10:02.782Z,57.60
2019-03-28T11:12:32.246Z,57.40
2019-03-28T11:15:01.870Z,57.60
2019-03-28T11:17:31.499Z,57.50
2019-03-28T11:20:01.061Z,57.20
2019-03-28T11:22:30.787Z,56.50
2019-03-28T11:25:00.427Z,57.60
2019-03-28T11:27:29.955Z,57.70
2019-03-28T11:29:59.555Z,60.20
2019-03-28T11:32:29.349Z,58.00
2019-03-28T11:35:00.416Z,57.00
2019-03-28T11:37:30.017Z,57.60
2019-03-28T11:39:59.566Z,57.30
2019-03-28T11:42:29.181Z,57.70
2019-03-28T11:44:58.723Z,56.60
2019-03-28T11:47:28.352Z,56.70
2019-03-28T11:49:57.976Z,56.30
2019-03-28T11:52:27.500Z,56.50
2019-03-28T11:54:57.043Z,55.50
2019-03-28T11:57:26.571Z,55.60
2019-03-28T11:59:57.973Z,54.90
2019-03-28T12:02:27.498Z,54.90
2019-03-28T12:04:57.012Z,55.20
2019-03-28T12:07:26.542Z,54.60
2019-03-28T12:09:56.159Z,55.30
2019-03-28T12:12:25.756Z,54.20
2019-03-28T12:14:55.297Z,54.10
2019-03-28T12:17:24.825Z,53.70
2019-03-28T12:19:54.424Z,53.70
2019-03-28T12:22:23.957Z,53.80
2019-03-28T12:24:53.434Z,54.30
2019-03-28T12:27:23.010Z,53.70
2019-03-28T12:29:52.483Z,53.50
2019-03-28T12:32:21.959Z,51.90
2019-03-28T12:34:51.499Z,51.90
2019-03-28T12:37:21.109Z,50.80
2019-03-28T12:39:50.707Z,50.60
2019-03-28T12:42:20.246Z,51.00
2019-03-28T12:44:56.790Z,50.60
2019-03-28T12:47:21.314Z,51.70
2019-03-28T12:49:50.841Z,50.90
2019-03-28T12:52:20.347Z,50.80
2019-03-28T12:54:49.885Z,52.50
2019-03-28T12:57:19.550Z,49.30
2019-03-28T12:59:49.026Z,49.60
2019-03-28T13:02:28.638Z,50.10
2019-03-28T13:04:49.797Z,48.90
2019-03-28T13:07:19.329Z,49.40
2019-03-28T13:09:48.859Z,48.10
2019-03-28T13:12:18.424Z,48.70
2019-03-28T13:14:48.059Z,48.80
2019-03-28T13:17:17.606Z,47.90
2019-03-28T13:19:47.113Z,48.00
2019-03-28T13:22:16.662Z,48.20
2019-03-28T13:24:46.224Z,47.20
2019-03-28T13:27:15.691Z,49.60
2019-03-28T13:29:45.158Z,48.10
2019-03-28T13:32:14.791Z,48.30
2019-03-28T13:34:44.504Z,46.80
2019-03-28T13:37:14.110Z,46.40
2019-03-28T13:39:43.650Z,46.20
2019-03-28T13:42:13.198Z,47.00
2019-03-28T13:44:42.804Z,46.30
2019-03-28T13:47:12.411Z,45.10
2019-03-28T13:49:41.865Z,45.20
2019-03-28T13:52:11.333Z,46.10
2019-03-28T13:54:40.876Z,46.30
2019-03-28T13:57:10.726Z,45.80
2019-03-28T13:59:40.236Z,43.50
2019-03-28T14:02:09.790Z,42.00
2019-03-28T14:04:39.303Z,42.90
2019-03-28T14:07:08.834Z,41.70
2019-03-28T14:09:38.414Z,40.60
2019-03-28T14:12:08.005Z,42.00
2019-03-28T14:14:39.872Z,42.20
2019-03-28T14:17:08.842Z,43.20
2019-03-28T14:19:38.298Z,43.60
2019-03-28T14:22:07.819Z,44.00
2019-03-28T14:24:37.379Z,45.90
2019-03-28T14:27:06.900Z,47.00
2019-03-28T14:29:36.528Z,47.50
2019-03-28T14:32:06.156Z,47.50
2019-03-28T14:34:35.768Z,47.40
2019-03-28T14:37:05.385Z,47.60
2019-03-28T14:39:35.459Z,48.70
2019-03-28T14:42:05.207Z,48.40
2019-03-28T14:44:34.860Z,49.20
2019-03-28T14:47:04.463Z,49.20
2019-03-28T14:49:34.248Z,48.00
2019-03-28T14:52:04.782Z,48.20
2019-03-28T14:54:34.385Z,48.40
2019-03-28T14:57:04.475Z,48.00
2019-03-28T14:59:34.985Z,50.20
2019-03-28T15:02:04.689Z,50.20
2019-03-28T15:04:34.132Z,51.40
2019-03-28T15:07:07.051Z,50.20
2019-03-28T15:09:35.609Z,48.80
2019-03-28T15:12:05.640Z,49.60
2019-03-28T15:14:35.114Z,49.80
2019-03-28T15:17:04.671Z,49.80
2019-03-28T15:19:34.202Z,49.10
2019-03-28T15:22:03.952Z,48.50
2019-03-28T15:24:33.406Z,50.50
2019-03-28T15:27:03.085Z,50.10
2019-03-28T15:29:32.658Z,50.60
2019-03-28T15:32:02.199Z,50.40
2019-03-28T15:34:31.648Z,51.30
2019-03-28T15:37:01.279Z,51.10
2019-03-28T15:39:31.595Z,51.40
2019-03-28T15:42:01.605Z,51.00
2019-03-28T15:44:31.146Z,51.10
2019-03-28T15:47:00.671Z,50.70
2019-03-28T15:49:30.195Z,51.20
2019-03-28T15:52:03.012Z,51.20
2019-03-28T15:54:31.135Z,51.70
2019-03-28T15:57:00.864Z,53.10
2019-03-28T15:59:30.839Z,51.70
2019-03-28T16:02:00.906Z,51.10
2019-03-28T16:04:30.952Z,51.30
2019-03-28T16:07:01.250Z,52.10
2019-03-28T16:09:31.211Z,51.70
2019-03-28T16:12:02.850Z,52.60
2019-03-28T16:14:32.403Z,52.60
2019-03-28T16:17:02.049Z,52.80
2019-03-28T16:19:31.867Z,53.40
2019-03-28T16:22:04.167Z,53.90
2019-03-28T16:24:33.005Z,54.40
2019-03-28T16:27:02.559Z,53.70
2019-03-28T16:29:32.079Z,53.60
2019-03-28T16:32:01.624Z,53.60
2019-03-28T16:34:31.226Z,53.30
2019-03-28T16:37:01.722Z,54.00
2019-03-28T16:39:31.672Z,54.70
2019-03-28T16:42:01.235Z,54.40
2019-03-28T16:44:31.012Z,54.20
2019-03-28T16:47:19.590Z,54.60
2019-03-28T16:49:49.373Z,55.10
2019-03-28T16:52:19.278Z,55.50
2019-03-28T16:54:49.041Z,56.00
2019-03-28T16:57:19.206Z,56.60
2019-03-28T16:59:49.329Z,56.00
2019-03-28T17:02:18.979Z,56.50
2019-03-28T17:04:49.678Z,56.60
2019-03-28T17:07:20.011Z,56.90
2019-03-28T17:09:50.545Z,57.20
2019-03-28T17:12:20.142Z,57.60
2019-03-28T17:14:49.776Z,58.30
2019-03-28T17:17:19.423Z,58.30
2019-03-28T17:19:49.343Z,58.80
2019-03-28T17:22:19.209Z,59.20
2019-03-28T17:24:48.738Z,59.40
2019-03-28T17:27:18.705Z,59.50
2019-03-28T17:29:48.384Z,59.70
2019-03-28T17:32:17.860Z,59.80
2019-03-28T17:34:47.476Z,59.50
2019-03-28T17:37:16.936Z,60.50
2019-03-28T17:39:46.494Z,60.50
2019-03-28T17:42:16.039Z,61.40
2019-03-28T17:44:45.680Z,61.10
2019-03-28T17:47:15.371Z,61.70
2019-03-28T17:49:45.000Z,61.90
2019-03-28T17:52:14.455Z,62.40
2019-03-28T17:54:43.927Z,62.80
2019-03-28T17:57:13.790Z,62.90
2019-03-28T17:59:45.324Z,63.40
2019-03-28T18:02:15.165Z,63.80
2019-03-28T18:04:48.119Z,63.80
2019-03-28T18:07:15.846Z,64.20
2019-03-28T18:09:45.402Z,64.40
2019-03-28T18:12:15.129Z,64.80
2019-03-28T18:14:44.860Z,65.10
2019-03-28T18:17:14.397Z,65.30
2019-03-28T18:19:44.027Z,65.20
2019-03-28T18:22:13.644Z,65.60
2019-03-28T18:24:43.252Z,66.00
2019-03-28T18:27:12.866Z,66.90
2019-03-28T18:29:42.390Z,66.40
2019-03-28T18:32:12.014Z,66.70
2019-03-28T18:34:41.557Z,67.20
2019-03-28T18:37:11.196Z,67.20
2019-03-28T18:39:40.805Z,67.00
2019-03-28T18:42:10.450Z,67.10
2019-03-28T18:44:39.968Z,67.50
2019-03-28T18:47:09.566Z,67.50
2019-03-28T18:49:39.247Z,67.40
2019-03-28T18:52:08.999Z,67.60
2019-03-28T18:54:38.658Z,67.90
2019-03-28T18:57:08.274Z,68.10
2019-03-28T18:59:37.807Z,68.10
2019-03-28T19:02:07.582Z,68.30
2019-03-28T19:04:37.164Z,68.70
2019-03-28T19:07:07.082Z,68.90
2019-03-28T19:09:36.637Z,68.90
2019-03-28T19:12:06.318Z,68.80
2019-03-28T19:14:35.908Z,69.00
2019-03-28T19:17:05.580Z,69.20
2019-03-28T19:19:39.606Z,69.20
2019-03-28T19:22:06.593Z,69.20
2019-03-28T19:24:36.333Z,69.40
2019-03-28T19:27:06.051Z,69.40
2019-03-28T19:29:35.547Z,69.70
2019-03-28T19:32:05.181Z,69.80
2019-03-28T19:34:34.841Z,70.00
2019-03-28T19:37:04.802Z,70.00
2019-03-28T19:39:34.913Z,70.30
2019-03-28T19:42:04.929Z,70.50
2019-03-28T19:44:34.590Z,70.70
2019-03-28T19:47:04.303Z,70.90
2019-03-28T19:49:34.027Z,70.80
2019-03-28T19:52:03.693Z,71.40
2019-03-28T19:54:33.332Z,71.10
2019-03-28T19:57:02.970Z,71.50
2019-03-28T19:59:32.548Z,71.40
2019-03-28T20:02:02.171Z,71.50
2019-03-28T20:04:31.944Z,72.40
2019-03-28T20:07:01.493Z,71.80
2019-03-28T20:09:31.130Z,71.80
2019-03-28T20:12:03.373Z,71.90
2019-03-28T20:14:32.183Z,71.70
2019-03-28T20:17:01.744Z,71.80
2019-03-28T20:19:31.426Z,71.90
2019-03-28T20:22:01.092Z,72.00
2019-03-28T20:24:30.729Z,72.70
2019-03-28T20:27:00.690Z,72.40
2019-03-28T20:29:33.270Z,72.50
2019-03-28T20:32:01.529Z,73.40
2019-03-28T20:34:31.226Z,72.80
2019-03-28T20:37:00.866Z,72.80
2019-03-28T20:39:30.487Z,72.80
2019-03-28T20:42:00.052Z,72.70
2019-03-28T20:44:29.616Z,72.90
2019-03-28T20:46:59.406Z,72.70
2019-03-28T20:49:29.029Z,72.80
2019-03-28T20:51:58.600Z,73.30
2019-03-28T20:54:28.206Z,73.40
2019-03-28T20:56:58.051Z,73.60
2019-03-28T20:59:27.713Z,73.50
2019-03-28T21:01:57.274Z,73.50
2019-03-28T21:04:31.529Z,73.60
2019-03-28T21:06:58.165Z,73.60
2019-03-28T21:09:27.814Z,73.20
2019-03-28T21:11:57.428Z,73.20
2019-03-28T21:14:27.920Z,73.30
2019-03-28T21:16:58.223Z,73.50
2019-03-28T21:19:28.053Z,73.80
2019-03-28T21:21:57.610Z,73.80
2019-03-28T21:24:27.174Z,74.30
2019-03-28T21:26:56.848Z,73.40
2019-03-28T21:29:26.484Z,74.60
2019-03-28T21:31:56.283Z,73.60
2019-03-28T21:34:25.863Z,73.70
2019-03-28T21:36:55.483Z,74.10
2019-03-28T21:39:25.103Z,74.10
2019-03-28T21:41:54.740Z,74.30
2019-03-28T21:44:24.458Z,74.50
2019-03-28T21:46:53.996Z,75.50
2019-03-28T21:49:23.488Z,74.50
2019-03-28T21:51:53.110Z,74.50
2019-03-28T21:54:22.825Z,74.50
2019-03-28T21:56:52.377Z,74.40
2019-03-28T21:59:22.844Z,74.60
2019-03-28T22:01:52.696Z,74.40
2019-03-28T22:04:22.206Z,74.60
2019-03-28T22:06:51.761Z,74.60
2019-03-28T22:09:21.308Z,75.50
2019-03-28T22:11:50.749Z,74.80
2019-03-28T22:14:20.323Z,75.00
2019-03-28T22:16:49.960Z,74.90
2019-03-28T22:19:19.808Z,74.80
2019-03-28T22:21:49.509Z,74.80
2019-03-28T22:24:19.093Z,74.80
2019-03-28T22:26:48.744Z,75.00
2019-03-28T22:29:18.345Z,75.20
2019-03-28T22:31:47.983Z,75.10
2019-03-28T22:34:17.637Z,75.40
2019-03-28T22:36:57.142Z,75.10
2019-03-28T22:39:18.368Z,74.80
2019-03-28T22:41:48.263Z,74.70
2019-03-28T22:44:18.511Z,74.90
2019-03-28T22:46:48.057Z,75.30
2019-03-28T22:49:17.603Z,75.30
2019-03-28T22:51:47.152Z,75.60
2019-03-28T22:54:16.699Z,75.60
2019-03-28T22:56:46.255Z,75.60
2019-03-28T22:59:15.846Z,75.80
2019-03-28T23:01:45.664Z,75.70
2019-03-28T23:04:15.361Z,75.90
2019-03-28T23:06:45.103Z,75.90
2019-03-28T23:09:14.634Z,75.60
2019-03-28T23:11:44.168Z,75.20
2019-03-28T23:14:13.734Z,75.30
2019-03-28T23:16:43.237Z,75.40
2019-03-28T23:19:12.917Z,75.50
2019-03-28T23:21:42.595Z,75.50
2019-03-28T23:24:12.241Z,75.60
2019-03-28T23:26:41.879Z,75.50
2019-03-28T23:29:11.431Z,75.40
2019-03-28T23:31:41.070Z,75.80
2019-03-28T23:34:10.618Z,75.70
2019-03-28T23:36:40.370Z,75.60
2019-03-28T23:39:10.095Z,75.90
2019-03-28T23:41:39.704Z,76.10
2019-03-28T23:44:09.191Z,75.70
2019-03-28T23:46:38.743Z,76.20
2019-03-28T23:49:08.359Z,76.70
2019-03-28T23:51:37.918Z,76.70
2019-03-28T23:54:07.477Z,76.90
2019-03-28T23:56:37.259Z,77.00
2019-03-28T23:59:06.901Z,77.30
